Time;durP1;ratioP1;P1;durP2;ratioP2;P2;SDS_P1;SDS_P2;PMS_P1;PMS_P2;Temp;Humidity;BMP_temperature;BMP_pressure;BME280_temperature;BME280_humidity;BME280_pressure;Samples;Min_cycle;Max_cycle;Signal;HPM_P1;HPM_P2
2022/06/11 00:01:23;;;;;;;7.90;3.80;;;;;;;;;;4938693;29;20075;-76
2022/06/11 00:03:52;;;;;;;10.82;4.32;;;;;;;;;;4950627;28;20146;-76
2022/06/11 00:06:20;;;;;;;9.38;4.10;;;;;;;;;;4951036;29;20059;-76
2022/06/11 00:08:48;;;;;;;9.70;4.13;;;;;;;;;;4937487;29;20155;-76
2022/06/11 00:11:15;;;;;;;7.65;3.92;;;;;;;;;;4921278;29;20138;-77
2022/06/11 00:13:43;;;;;;;8.35;3.88;;;;;;;;;;4925717;29;20087;-76
2022/06/11 00:16:11;;;;;;;6.05;3.70;;;;;;;;;;4928787;29;20652;-77
2022/06/11 00:18:42;;;;;;;10.57;3.55;;;;;;;;;;4931725;29;20095;-77
2022/06/11 00:21:10;;;;;;;6.93;3.85;;;;;;;;;;4932019;29;20469;-76
2022/06/11 00:23:38;;;;;;;10.57;4.65;;;;;;;;;;4931394;29;20126;-76
2022/06/11 00:26:05;;;;;;;6.28;4.70;;;;;;;;;;4914702;29;20147;-77
2022/06/11 00:28:33;;;;;;;8.52;5.00;;;;;;;;;;4914597;29;20079;-77
2022/06/11 00:31:01;;;;;;;18.40;5.38;;;;;;;;;;4931673;29;20685;-77
2022/06/11 00:33:28;;;;;;;6.97;4.85;;;;;;;;;;4912098;29;20142;-77
2022/06/11 00:35:56;;;;;;;10.88;5.07;;;;;;;;;;4914844;29;20075;-76
2022/06/11 00:38:23;;;;;;;6.07;4.65;;;;;;;;;;4931109;29;20083;-77
2022/06/11 00:40:51;;;;;;;6.60;4.80;;;;;;;;;;4933892;29;20082;-77
2022/06/11 00:43:20;;;;;;;14.05;5.15;;;;;;;;;;4950183;28;20058;-77
2022/06/11 00:45:51;;;;;;;6.32;4.22;;;;;;;;;;4950985;28;20496;-77
2022/06/11 00:48:23;;;;;;;9.25;4.45;;;;;;;;;;4924576;29;20062;-77
2022/06/11 00:50:53;;;;;;;11.73;4.22;;;;;;;;;;4914613;29;20138;-77
2022/06/11 00:53:31;;;;;;;7.80;4.10;;;;;;;;;;4927223;29;20572;-77
2022/06/11 00:55:59;;;;;;;7.43;4.28;;;;;;;;;;4925202;29;20513;-77
2022/06/11 00:58:29;;;;;;;5.30;4.00;;;;;;;;;;4930949;29;20166;-77
2022/06/11 01:00:59;;;;;;;7.05;4.35;;;;;;;;;;4915812;29;20154;-77
2022/06/11 01:03:30;;;;;;;8.82;4.40;;;;;;;;;;4950015;29;20051;-77
2022/06/11 01:06:10;;;;;;;5.88;4.20;;;;;;;;;;4932103;29;20051;-77
2022/06/11 01:08:43;;;;;;;5.40;3.92;;;;;;;;;;4921948;29;20091;-77
2022/06/11 01:11:16;;;;;;;8.77;4.43;;;;;;;;;;4911599;29;20652;-77
2022/06/11 01:13:50;;;;;;;6.60;4.18;;;;;;;;;;4929079;29;20103;-76
2022/06/11 01:16:17;;;;;;;9.75;4.53;;;;;;;;;;4928907;29;20552;-78
2022/06/11 01:19:04;;;;;;;5.80;4.40;;;;;;;;;;4913294;29;20047;-77
2022/06/11 01:21:32;;;;;;;7.05;4.38;;;;;;;;;;4911137;29;20155;-76
2022/06/11 01:24:14;;;;;;;5.60;4.32;;;;;;;;;;4915093;29;20055;-77
2022/06/11 01:27:01;;;;;;;8.07;4.53;;;;;;;;;;4930138;29;20151;-76
2022/06/11 01:29:47;;;;;;;9.82;5.07;;;;;;;;;;4914436;29;20090;-77
2022/06/11 01:32:14;;;;;;;;;;;;;;;;;;4929823;29;20055;-74
2022/06/11 01:34:48;;;;;;;8.40;4.70;;;;;;;;;;4928902;29;20045;-74
2022/06/11 01:37:28;;;;;;;8.80;4.85;;;;;;;;;;4930111;29;20146;-74
2022/06/11 01:40:05;;;;;;;11.90;5.68;;;;;;;;;;4929213;29;20568;-74
2022/06/11 01:42:39;;;;;;;8.60;4.93;;;;;;;;;;4929940;29;20106;-74
2022/06/11 01:45:12;;;;;;;16.67;5.57;;;;;;;;;;4932225;29;20457;-74
2022/06/11 01:47:39;;;;;;;13.05;5.45;;;;;;;;;;4912570;29;20098;-75
2022/06/11 01:50:07;;;;;;;8.73;5.53;;;;;;;;;;4929151;29;20087;-76
2022/06/11 01:52:53;;;;;;;10.80;6.65;;;;;;;;;;4930011;29;20102;-76
2022/06/11 01:55:26;;;;;;;10.63;5.85;;;;;;;;;;4930029;29;20487;-75
2022/06/11 01:58:07;;;;;;;9.45;5.70;;;;;;;;;;4912846;29;20150;-76
2022/06/11 02:00:37;;;;;;;15.50;5.47;;;;;;;;;;4929425;29;20130;-75
2022/06/11 02:03:11;;;;;;;14.13;7.05;;;;;;;;;;4929274;29;20134;-76
2022/06/11 02:05:51;;;;;;;15.60;7.10;;;;;;;;;;4915515;29;20056;-75
2022/06/11 02:08:23;;;;;;;12.55;6.03;;;;;;;;;;4910986;29;20368;-75
2022/06/11 02:11:08;;;;;;;12.68;6.03;;;;;;;;;;4925103;29;20060;-75
2022/06/11 02:13:36;;;;;;;11.68;5.50;;;;;;;;;;4929754;29;20095;-75
2022/06/11 02:16:03;;;;;;;11.38;5.93;;;;;;;;;;4930241;29;20055;-75
2022/06/11 02:18:31;;;;;;;10.88;5.57;;;;;;;;;;4923765;29;20139;-75
2022/06/11 02:20:58;;;;;;;7.20;5.45;;;;;;;;;;4923704;29;20050;-75
2022/06/11 02:23:28;;;;;;;14.07;6.47;;;;;;;;;;4920854;29;20075;-75
2022/06/11 02:25:58;;;;;;;9.15;4.88;;;;;;;;;;4929744;29;20154;-75
2022/06/11 02:28:28;;;;;;;8.55;4.88;;;;;;;;;;4912351;29;20143;-75
2022/06/11 02:30:58;;;;;;;11.95;5.38;;;;;;;;;;4922146;29;20052;-75
2022/06/11 02:33:26;;;;;;;6.80;4.85;;;;;;;;;;4928621;29;20099;-75
2022/06/11 02:35:53;;;;;;;9.68;4.57;;;;;;;;;;4928881;29;20083;-75
2022/06/11 02:38:22;;;;;;;7.10;5.20;;;;;;;;;;4912038;29;20079;-75
2022/06/11 02:40:58;;;;;;;7.57;5.25;;;;;;;;;;4928996;29;20094;-75
2022/06/11 02:43:25;;;;;;;;;;;;;;;;;;4912877;29;20161;-76
2022/06/11 02:45:53;;;;;;;8.95;5.70;;;;;;;;;;4908948;29;19926;-75
2022/06/11 02:48:20;;;;;;;9.77;5.75;;;;;;;;;;4905210;29;20040;-75
2022/06/11 02:50:48;;;;;;;10.35;5.00;;;;;;;;;;4908396;29;20055;-75
2022/06/11 02:53:16;;;;;;;10.48;5.05;;;;;;;;;;4901928;29;20139;-75
2022/06/11 02:55:45;;;;;;;9.43;4.63;;;;;;;;;;4925941;29;20063;-75
2022/06/11 02:58:13;;;;;;;9.23;4.82;;;;;;;;;;4926408;29;20067;-75
2022/06/11 03:00:43;;;;;;;13.38;5.45;;;;;;;;;;4925765;29;20134;-75
2022/06/11 03:03:11;;;;;;;10.98;4.85;;;;;;;;;;4928418;29;20462;-74
2022/06/11 03:05:40;;;;;;;9.68;5.38;;;;;;;;;;4926687;29;20056;-75
2022/06/11 03:08:08;;;;;;;10.38;5.40;;;;;;;;;;4906468;29;20139;-75
2022/06/11 03:10:36;;;;;;;9.65;5.93;;;;;;;;;;4927064;29;20048;-75
2022/06/11 03:13:03;;;;;;;9.60;5.15;;;;;;;;;;4924432;29;20159;-75
2022/06/11 03:15:30;;;;;;;15.35;6.00;;;;;;;;;;4927063;28;20087;-74
2022/06/11 03:17:58;;;;;;;7.85;4.90;;;;;;;;;;4911238;29;20126;-75
2022/06/11 03:20:29;;;;;;;20.60;5.43;;;;;;;;;;4927961;29;20083;-75
2022/06/11 03:22:57;;;;;;;7.15;5.13;;;;;;;;;;4928521;29;20127;-75
2022/06/11 03:25:24;;;;;;;14.70;5.15;;;;;;;;;;4928143;29;20469;-75
2022/06/11 03:27:52;;;;;;;10.40;4.88;;;;;;;;;;4926887;29;20593;-75
2022/06/11 03:30:19;;;;;;;9.57;5.63;;;;;;;;;;4924762;29;20064;-75
2022/06/11 03:32:47;;;;;;;10.27;4.95;;;;;;;;;;4928360;29;20146;-75
2022/06/11 03:35:14;;;;;;;13.38;5.05;;;;;;;;;;4927353;29;20095;-75
2022/06/11 03:37:42;;;;;;;13.18;5.38;;;;;;;;;;4927716;29;20087;-75
2022/06/11 03:40:10;;;;;;;7.18;5.55;;;;;;;;;;4928077;29;20151;-75
2022/06/11 03:42:37;;;;;;;7.72;4.78;;;;;;;;;;4928365;29;20087;-75
2022/06/11 03:45:05;;;;;;;6.15;5.28;;;;;;;;;;4928615;29;20051;-75
2022/06/11 03:47:33;;;;;;;11.82;5.35;;;;;;;;;;4909115;29;20091;-75
2022/06/11 03:50:01;;;;;;;8.55;5.75;;;;;;;;;;4927132;29;20084;-75
2022/06/11 03:52:29;;;;;;;10.18;5.88;;;;;;;;;;4927389;29;20052;-75
2022/06/11 03:54:56;;;;;;;5.18;4.10;;;;;;;;;;4916906;29;20835;-75
2022/06/11 03:57:24;;;;;;;6.20;4.75;;;;;;;;;;4911183;29;20143;-74
2022/06/11 03:59:51;;;;;;;9.55;5.50;;;;;;;;;;4927939;29;20051;-75
2022/06/11 04:02:18;;;;;;;6.45;5.45;;;;;;;;;;4928294;29;20146;-75
2022/06/11 04:04:46;;;;;;;11.18;5.20;;;;;;;;;;4923148;29;20494;-74
2022/06/11 04:07:13;;;;;;;9.45;5.07;;;;;;;;;;4927630;29;20084;-74
2022/06/11 04:09:42;;;;;;;9.40;5.03;;;;;;;;;;4927595;29;20166;-74
2022/06/11 04:12:12;;;;;;;6.80;5.15;;;;;;;;;;4927455;29;20087;-74
2022/06/11 04:14:39;;;;;;;8.90;6.88;;;;;;;;;;4928070;29;20048;-73
2022/06/11 04:17:08;;;;;;;10.30;5.05;;;;;;;;;;4928117;29;20135;-75
2022/06/11 04:19:38;;;;;;;8.30;4.85;;;;;;;;;;4927487;29;20061;-74
2022/06/11 04:22:06;;;;;;;9.02;4.85;;;;;;;;;;4927437;29;20167;-74
2022/06/11 04:24:33;;;;;;;7.90;4.75;;;;;;;;;;4925968;29;20143;-74
2022/06/11 04:27:02;;;;;;;9.63;4.75;;;;;;;;;;4927556;29;20052;-74
2022/06/11 04:29:32;;;;;;;14.55;6.30;;;;;;;;;;4910361;29;20145;-74
2022/06/11 04:32:00;;;;;;;11.63;5.63;;;;;;;;;;4927726;29;20083;-74
2022/06/11 04:34:29;;;;;;;15.90;5.75;;;;;;;;;;4927507;29;20059;-74
2022/06/11 04:36:56;;;;;;;10.80;5.85;;;;;;;;;;4911115;29;20138;-74
2022/06/11 04:39:25;;;;;;;5.05;4.55;;;;;;;;;;4927641;29;20167;-75
2022/06/11 04:41:53;;;;;;;8.93;5.40;;;;;;;;;;4926785;29;20130;-75
2022/06/11 04:44:21;;;;;;;9.18;5.68;;;;;;;;;;4931536;29;20748;-75
2022/06/11 04:46:49;;;;;;;9.43;5.40;;;;;;;;;;4928850;29;20088;-75
2022/06/11 04:49:17;;;;;;;6.65;4.75;;;;;;;;;;4929674;29;20047;-74
2022/06/11 04:51:45;;;;;;;14.65;5.82;;;;;;;;;;4934584;29;20071;-75
2022/06/11 04:54:12;;;;;;;14.50;5.70;;;;;;;;;;4930093;29;20131;-75
2022/06/11 04:56:40;;;;;;;12.10;5.63;;;;;;;;;;4911849;29;20084;-75
2022/06/11 04:59:07;;;;;;;16.42;5.72;;;;;;;;;;4911910;29;20087;-75
2022/06/11 05:01:38;;;;;;;8.38;5.10;;;;;;;;;;4923321;29;20047;-74
2022/06/11 05:04:06;;;;;;;8.00;5.07;;;;;;;;;;4919141;29;20052;-74
2022/06/11 05:06:37;;;;;;;10.00;4.63;;;;;;;;;;4930892;29;20083;-75
2022/06/11 05:09:04;;;;;;;10.30;5.20;;;;;;;;;;4930523;29;20060;-73
2022/06/11 05:11:32;;;;;;;5.20;4.70;;;;;;;;;;4914918;29;20159;-78
2022/06/11 05:13:59;;;;;;;9.95;4.65;;;;;;;;;;4913753;29;20412;-77
2022/06/11 05:16:27;;;;;;;9.07;5.00;;;;;;;;;;4930375;29;20532;-77
2022/06/11 05:18:54;;;;;;;10.07;4.72;;;;;;;;;;4915694;29;20059;-80
2022/06/11 05:21:22;;;;;;;12.80;4.82;;;;;;;;;;4915225;29;20154;-76
2022/06/11 05:23:50;;;;;;;8.15;4.30;;;;;;;;;;4921591;29;20135;-77
2022/06/11 05:26:21;;;;;;;12.43;4.88;;;;;;;;;;4930995;29;20107;-78
2022/06/11 05:28:48;;;;;;;9.38;4.30;;;;;;;;;;4930889;29;20163;-76
2022/06/11 05:31:16;;;;;;;7.90;3.70;;;;;;;;;;4913311;29;20131;-75
2022/06/11 05:33:44;;;;;;;6.82;4.20;;;;;;;;;;4930579;29;20209;-77
2022/06/11 05:36:13;;;;;;;10.73;4.45;;;;;;;;;;4930507;29;20107;-77
2022/06/11 05:38:40;;;;;;;8.80;4.20;;;;;;;;;;4915646;29;20090;-76
2022/06/11 05:41:08;;;;;;;24.55;7.97;;;;;;;;;;4929751;29;20166;-77
2022/06/11 05:43:35;;;;;;;21.00;6.00;;;;;;;;;;4934034;29;20109;-77
2022/06/11 05:46:11;;;;;;;7.53;4.68;;;;;;;;;;4935570;29;20155;-75
2022/06/11 05:48:44;;;;;;;8.68;4.72;;;;;;;;;;4930284;29;21163;-74
2022/06/11 05:51:13;;;;;;;9.52;4.25;;;;;;;;;;4913785;29;20056;-79
2022/06/11 05:53:46;;;;;;;21.92;4.97;;;;;;;;;;4918413;29;20055;-80
2022/06/11 05:56:14;;;;;;;18.17;5.05;;;;;;;;;;4918573;29;20044;-79
2022/06/11 05:58:46;;;;;;;8.68;6.00;;;;;;;;;;4935161;29;20496;-80
2022/06/11 06:01:15;;;;;;;11.55;4.57;;;;;;;;;;4934725;29;20135;-78
2022/06/11 06:03:42;;;;;;;7.18;4.07;;;;;;;;;;4930657;29;20553;-78
2022/06/11 06:06:10;;;;;;;11.18;5.80;;;;;;;;;;4898880;29;20052;-79
2022/06/11 06:08:37;;;;;;;13.60;4.80;;;;;;;;;;4946929;28;20129;-81
2022/06/11 06:11:05;;;;;;;10.20;4.20;;;;;;;;;;4936152;29;20151;-82
2022/06/11 06:13:47;;;;;;;16.40;6.97;;;;;;;;;;4935988;29;20086;-75
2022/06/11 06:16:15;;;;;;;7.72;4.18;;;;;;;;;;4947755;29;20056;-76
2022/06/11 06:18:42;;;;;;;7.72;4.63;;;;;;;;;;4932520;28;20067;-76
2022/06/11 06:21:10;;;;;;;10.23;4.00;;;;;;;;;;4928296;29;20552;-76
2022/06/11 06:23:37;;;;;;;10.23;4.60;;;;;;;;;;4928971;29;20094;-76
2022/06/11 06:26:05;;;;;;;8.75;4.35;;;;;;;;;;4929761;29;20155;-76
2022/06/11 06:28:34;;;;;;;11.90;4.72;;;;;;;;;;4929949;29;20111;-75
2022/06/11 06:31:03;;;;;;;9.32;4.00;;;;;;;;;;4912118;29;20142;-75
2022/06/11 06:33:31;;;;;;;7.93;3.90;;;;;;;;;;4929050;29;20891;-76
2022/06/11 06:35:59;;;;;;;8.85;4.20;;;;;;;;;;4929223;29;20130;-75
2022/06/11 06:38:27;;;;;;;7.40;3.90;;;;;;;;;;4941870;29;20086;-76
2022/06/11 06:40:54;;;;;;;8.50;4.43;;;;;;;;;;4948122;28;20534;-76
2022/06/11 06:43:22;;;;;;;10.55;4.30;;;;;;;;;;4918223;29;20138;-75
2022/06/11 06:45:49;;;;;;;6.50;4.18;;;;;;;;;;4934270;29;20055;-76
2022/06/11 06:48:17;;;;;;;10.80;4.65;;;;;;;;;;4930376;29;20195;-75
2022/06/11 06:50:44;;;;;;;6.03;3.90;;;;;;;;;;4947480;28;20146;-76
2022/06/11 06:53:11;;;;;;;11.48;4.68;;;;;;;;;;4936561;29;20158;-76
2022/06/11 06:55:40;;;;;;;16.02;4.57;;;;;;;;;;4916589;29;20044;-76
2022/06/11 06:58:08;;;;;;;7.20;3.53;;;;;;;;;;4948325;28;20142;-76
2022/06/11 07:00:35;;;;;;;13.05;6.45;;;;;;;;;;4930651;29;20563;-76
2022/06/11 07:03:02;;;;;;;10.25;3.83;;;;;;;;;;4937728;29;20087;-76
2022/06/11 07:05:30;;;;;;;7.13;3.45;;;;;;;;;;4931938;29;20580;-76
2022/06/11 07:07:57;;;;;;;8.70;3.70;;;;;;;;;;4948412;29;20051;-75
2022/06/11 07:10:25;;;;;;;10.25;4.10;;;;;;;;;;4930951;29;20126;-75
2022/06/11 07:12:53;;;;;;;8.40;3.95;;;;;;;;;;4939516;29;20059;-76
2022/06/11 07:15:21;;;;;;;7.35;3.83;;;;;;;;;;4929955;29;20084;-76
2022/06/11 07:17:50;;;;;;;9.80;4.47;;;;;;;;;;4930164;29;20086;-76
2022/06/11 07:20:19;;;;;;;7.65;4.40;;;;;;;;;;4946730;28;20090;-76
2022/06/11 07:22:49;;;;;;;8.82;3.92;;;;;;;;;;4940173;29;20091;-75
2022/06/11 07:25:17;;;;;;;8.98;3.85;;;;;;;;;;4929154;29;20825;-75
2022/06/11 07:27:49;;;;;;;9.20;4.57;;;;;;;;;;4930586;29;20158;-76
2022/06/11 07:30:18;;;;;;;10.32;4.50;;;;;;;;;;4947793;29;20059;-75
2022/06/11 07:32:48;;;;;;;9.10;3.75;;;;;;;;;;4940454;29;20071;-75
2022/06/11 07:35:16;;;;;;;10.52;4.30;;;;;;;;;;4928804;29;20070;-75
2022/06/11 07:37:44;;;;;;;9.50;3.85;;;;;;;;;;4930777;29;20818;-75
2022/06/11 07:40:12;;;;;;;9.32;4.68;;;;;;;;;;4930686;29;20304;-75
2022/06/11 07:42:39;;;;;;;7.93;4.53;;;;;;;;;;4924401;29;20079;-76
2022/06/11 07:45:07;;;;;;;8.00;3.78;;;;;;;;;;4929114;29;20083;-75
2022/06/11 07:50:27;;;;;;;15.40;4.68;;;;;;;;;;4909244;29;20082;-76
2022/06/11 07:52:55;;;;;;;27.05;5.15;;;;;;;;;;4924825;29;20091;-78
2022/06/11 07:55:23;;;;;;;11.88;3.55;;;;;;;;;;4912113;29;20486;-75
2022/06/11 07:57:50;;;;;;;10.30;3.95;;;;;;;;;;4928344;29;20086;-76
2022/06/11 08:00:21;;;;;;;11.88;3.95;;;;;;;;;;4910365;29;20083;-76
2022/06/11 08:02:48;;;;;;;9.48;3.38;;;;;;;;;;4933490;28;20413;-76
2022/06/11 08:05:16;;;;;;;8.20;3.53;;;;;;;;;;4946826;29;20772;-76
2022/06/11 08:07:43;;;;;;;8.18;3.63;;;;;;;;;;4946937;29;20110;-76
2022/06/11 08:10:11;;;;;;;8.55;3.33;;;;;;;;;;4946586;28;20170;-76
2022/06/11 08:12:38;;;;;;;6.70;3.10;;;;;;;;;;4946012;28;20071;-75
2022/06/11 08:15:06;;;;;;;7.53;3.10;;;;;;;;;;4948127;28;20142;-75
2022/06/11 08:17:34;;;;;;;7.00;3.35;;;;;;;;;;4933254;29;20063;-75
2022/06/11 08:20:02;;;;;;;7.03;3.03;;;;;;;;;;4950480;29;20515;-76
2022/06/11 08:22:30;;;;;;;12.93;3.97;;;;;;;;;;4949565;28;20126;-76
2022/06/11 08:24:58;;;;;;;9.95;3.70;;;;;;;;;;4951366;28;20051;-75
2022/06/11 08:27:26;;;;;;;14.07;3.55;;;;;;;;;;4950796;28;20142;-76
2022/06/11 08:29:53;;;;;;;8.00;3.58;;;;;;;;;;4933580;28;20440;-76
2022/06/11 08:32:20;;;;;;;9.23;3.40;;;;;;;;;;4932517;29;20437;-76
2022/06/11 08:34:47;;;;;;;8.10;2.95;;;;;;;;;;4950924;28;20130;-76
2022/06/11 08:37:15;;;;;;;14.60;4.22;;;;;;;;;;4950868;29;20440;-76
2022/06/11 08:39:43;;;;;;;7.32;3.53;;;;;;;;;;4933386;29;20147;-77
2022/06/11 08:42:31;;;;;;;5.25;2.80;;;;;;;;;;4949351;29;20398;-75
2022/06/11 08:45:00;;;;;;;10.10;3.20;;;;;;;;;;4914315;29;20048;-75
2022/06/11 08:47:30;;;;;;;11.52;3.63;;;;;;;;;;4913668;29;20055;-76
2022/06/11 08:50:00;;;;;;;24.58;3.78;;;;;;;;;;4931853;29;20555;-77
2022/06/11 08:52:31;;;;;;;22.50;4.00;;;;;;;;;;4932435;29;20138;-73
2022/06/11 08:55:00;;;;;;;12.25;4.05;;;;;;;;;;4920065;29;20496;-73
2022/06/11 08:57:27;;;;;;;9.90;3.55;;;;;;;;;;4950184;28;20079;-79
2022/06/11 08:59:54;;;;;;;8.85;3.08;;;;;;;;;;4914134;29;20171;-75
2022/06/11 09:02:40;;;;;;;9.65;3.08;;;;;;;;;;4931864;29;20147;-75
2022/06/11 09:05:21;;;;;;;13.27;2.83;;;;;;;;;;4950258;29;20174;-75
2022/06/11 09:07:52;;;;;;;10.02;3.25;;;;;;;;;;4950212;29;20059;-75
2022/06/11 09:10:22;;;;;;;8.30;3.13;;;;;;;;;;4932864;29;20075;-75
2022/06/11 09:12:49;;;;;;;8.10;3.65;;;;;;;;;;4935455;28;20178;-75
2022/06/11 09:15:25;;;;;;;8.90;3.17;;;;;;;;;;4932812;29;20141;-75
2022/06/11 09:17:56;;;;;;;9.48;3.72;;;;;;;;;;4932391;29;20134;-75
2022/06/11 09:20:37;;;;;;;10.95;3.35;;;;;;;;;;4930752;29;20173;-75
2022/06/11 09:23:20;;;;;;;8.65;2.92;;;;;;;;;;4931643;29;20512;-75
2022/06/11 09:25:47;;;;;;;6.88;2.90;;;;;;;;;;4895105;29;20143;-75
2022/06/11 09:28:15;;;;;;;9.48;3.03;;;;;;;;;;4911711;29;20052;-75
2022/06/11 09:30:46;;;;;;;9.35;2.72;;;;;;;;;;4940637;29;20130;-75
2022/06/11 09:33:24;;;;;;;7.40;3.15;;;;;;;;;;4941776;28;20066;-75
2022/06/11 09:36:05;;;;;;;15.27;3.65;;;;;;;;;;4930763;29;20087;-75
2022/06/11 09:39:11;;;;;;;8.60;3.20;;;;;;;;;;4923654;29;20145;-77
2022/06/11 09:41:41;;;;;;;8.20;3.88;;;;;;;;;;4871424;29;20140;-75
2022/06/11 09:44:20;;;;;;;17.65;4.50;;;;;;;;;;4870753;29;20085;-75
2022/06/11 09:46:56;;;;;;;9.70;4.43;;;;;;;;;;4895113;29;20462;-77
2022/06/11 09:49:28;;;;;;;17.67;4.75;;;;;;;;;;4930068;29;20143;-77
2022/06/11 09:52:05;;;;;;;9.13;4.55;;;;;;;;;;4930510;29;20099;-77
2022/06/11 09:54:38;;;;;;;7.90;3.30;;;;;;;;;;4930916;29;20126;-75
2022/06/11 09:57:24;;;;;;;4.38;2.90;;;;;;;;;;4931022;29;20130;-75
2022/06/11 09:59:53;;;;;;;8.23;3.17;;;;;;;;;;4911798;29;20102;-75
2022/06/11 10:02:29;;;;;;;5.38;2.80;;;;;;;;;;4914936;29;20083;-75
2022/06/11 10:04:58;;;;;;;15.43;3.38;;;;;;;;;;4911901;29;20052;-75
2022/06/11 10:07:29;;;;;;;6.60;3.40;;;;;;;;;;4918317;29;20436;-76
2022/06/11 10:10:04;;;;;;;8.18;3.20;;;;;;;;;;4915052;29;20091;-76
2022/06/11 10:12:34;;;;;;;9.25;3.40;;;;;;;;;;4931466;29;20080;-75
2022/06/11 10:15:06;;;;;;;9.02;4.07;;;;;;;;;;4931850;29;20110;-75
2022/06/11 10:17:37;;;;;;;10.05;2.97;;;;;;;;;;4932669;29;20075;-74
2022/06/11 10:20:14;;;;;;;10.38;3.22;;;;;;;;;;4915482;29;20130;-74
2022/06/11 10:22:41;;;;;;;7.65;2.60;;;;;;;;;;4932239;29;20052;-74
2022/06/11 10:25:18;;;;;;;9.00;2.17;;;;;;;;;;4931883;29;20083;-75
2022/06/11 10:27:49;;;;;;;9.32;3.13;;;;;;;;;;4915352;29;20158;-74
2022/06/11 10:30:19;;;;;;;7.90;3.03;;;;;;;;;;4914740;29;20055;-75
2022/06/11 10:32:48;;;;;;;6.60;2.53;;;;;;;;;;4914165;29;20110;-75
2022/06/11 10:35:23;;;;;;;4.82;2.10;;;;;;;;;;4914273;29;20097;-75
2022/06/11 10:38:10;;;;;;;5.63;2.47;;;;;;;;;;4930829;29;20171;-75
2022/06/11 10:40:43;;;;;;;5.82;2.50;;;;;;;;;;4931948;29;20110;-75
2022/06/11 10:43:25;;;;;;;8.65;3.15;;;;;;;;;;4932463;29;20089;-75
2022/06/11 10:45:52;;;;;;;5.45;2.40;;;;;;;;;;4931139;29;20453;-75
2022/06/11 10:48:21;;;;;;;19.65;3.10;;;;;;;;;;4914278;29;20057;-76
2022/06/11 10:50:49;;;;;;;9.15;2.80;;;;;;;;;;4933747;29;20453;-76
2022/06/11 10:53:16;;;;;;;7.25;2.63;;;;;;;;;;4932825;29;20699;-76
2022/06/11 10:55:44;;;;;;;15.77;3.03;;;;;;;;;;4939984;29;20078;-76
2022/06/11 10:58:31;;;;;;;8.27;3.25;;;;;;;;;;4938883;29;20048;-75
2022/06/11 11:01:03;;;;;;;5.20;3.30;;;;;;;;;;4927901;29;20143;-75
2022/06/11 11:03:37;;;;;;;9.90;3.53;;;;;;;;;;4931552;29;20761;-76
2022/06/11 11:06:06;;;;;;;7.63;2.85;;;;;;;;;;4946441;29;20416;-78
2022/06/11 11:08:37;;;;;;;8.45;2.88;;;;;;;;;;4931017;29;20075;-75
2022/06/11 11:11:09;;;;;;;8.60;2.60;;;;;;;;;;4947558;29;20130;-76
2022/06/11 11:13:41;;;;;;;6.50;2.70;;;;;;;;;;4931072;29;20078;-75
2022/06/11 11:16:09;;;;;;;8.90;2.75;;;;;;;;;;4924143;29;20126;-76
2022/06/11 11:18:56;;;;;;;5.72;2.47;;;;;;;;;;4911347;29;20063;-76
2022/06/11 11:21:32;;;;;;;6.85;2.88;;;;;;;;;;4928856;29;20087;-76
2022/06/11 11:24:04;;;;;;;7.40;4.20;;;;;;;;;;4912136;29;20142;-75
2022/06/11 11:26:40;;;;;;;9.48;3.72;;;;;;;;;;4929032;29;20059;-75
2022/06/11 11:29:08;;;;;;;7.28;3.13;;;;;;;;;;4923490;29;20126;-75
2022/06/11 11:31:47;;;;;;;4.97;2.92;;;;;;;;;;4947406;29;20062;-75
2022/06/11 11:34:23;;;;;;;8.77;2.90;;;;;;;;;;4931731;29;20123;-75
2022/06/11 11:36:58;;;;;;;5.30;3.42;;;;;;;;;;4928887;29;20131;-76
2022/06/11 11:39:27;;;;;;;13.13;3.40;;;;;;;;;;4929107;29;20162;-76
2022/06/11 11:41:55;;;;;;;7.85;2.85;;;;;;;;;;4944571;29;20138;-76
2022/06/11 11:44:24;;;;;;;5.75;2.90;;;;;;;;;;4947987;28;20086;-76
2022/06/11 11:46:53;;;;;;;15.82;3.83;;;;;;;;;;4947962;28;20519;-76
2022/06/11 11:49:25;;;;;;;7.07;3.00;;;;;;;;;;4944883;28;20131;-75
2022/06/11 11:51:53;;;;;;;5.00;2.80;;;;;;;;;;4915173;29;20225;-76
2022/06/11 11:54:22;;;;;;;5.28;2.90;;;;;;;;;;4913596;29;20139;-76
2022/06/11 11:56:49;;;;;;;4.28;2.92;;;;;;;;;;4913503;29;20613;-76
2022/06/11 11:59:20;;;;;;;7.15;2.47;;;;;;;;;;4896854;29;20181;-76
2022/06/11 12:01:48;;;;;;;3.60;2.40;;;;;;;;;;4913153;29;20060;-76
2022/06/11 12:04:19;;;;;;;9.70;2.95;;;;;;;;;;4898815;29;20524;-76
2022/06/11 12:06:55;;;;;;;7.03;2.63;;;;;;;;;;4915280;29;20071;-76
2022/06/11 12:09:28;;;;;;;5.53;2.00;;;;;;;;;;4932351;29;20631;-75
2022/06/11 12:11:58;;;;;;;4.55;2.30;;;;;;;;;;4932360;29;20131;-76
2022/06/11 12:14:30;;;;;;;6.10;3.00;;;;;;;;;;4950302;29;20100;-76
2022/06/11 12:17:02;;;;;;;4.25;2.20;;;;;;;;;;4950705;29;20138;-76
2022/06/11 12:19:32;;;;;;;6.18;2.30;;;;;;;;;;4950755;29;20059;-76
2022/06/11 12:22:05;;;;;;;5.72;2.63;;;;;;;;;;4951513;29;20134;-76
2022/06/11 12:24:38;;;;;;;5.97;2.30;;;;;;;;;;4922864;29;20146;-75
2022/06/11 12:27:11;;;;;;;8.38;2.30;;;;;;;;;;4932302;29;20818;-75
2022/06/11 12:29:42;;;;;;;4.57;2.20;;;;;;;;;;4932073;29;20143;-75
2022/06/11 12:32:14;;;;;;;4.95;2.03;;;;;;;;;;4932120;29;20138;-75
2022/06/11 12:34:41;;;;;;;14.77;2.25;;;;;;;;;;4932434;29;20050;-76
2022/06/11 12:37:14;;;;;;;3.58;1.90;;;;;;;;;;4925545;29;20141;-75
2022/06/11 12:40:00;;;;;;;7.90;2.10;;;;;;;;;;4950904;29;20087;-75
2022/06/11 12:42:27;;;;;;;1.52;1.42;;;;;;;;;;4917107;29;20083;-75
2022/06/11 12:45:04;;;;;;;8.63;2.15;;;;;;;;;;4931701;29;20111;-75
2022/06/11 12:47:52;;;;;;;2.70;1.90;;;;;;;;;;4932095;29;20515;-75
2022/06/11 12:51:00;;;;;;;8.35;2.38;;;;;;;;;;4931375;29;20731;-76
2022/06/11 12:53:30;;;;;;;9.10;2.05;;;;;;;;;;4912704;29;20151;-75
2022/06/11 12:55:57;;;;;;;5.43;2.08;;;;;;;;;;4912356;29;20091;-75
2022/06/11 12:58:34;;;;;;;3.55;1.70;;;;;;;;;;4919000;29;20143;-76
2022/06/11 13:01:05;;;;;;;6.32;2.22;;;;;;;;;;4913300;29;20147;-74
2022/06/11 13:03:52;;;;;;;6.93;1.50;;;;;;;;;;4914486;29;20433;-75
2022/06/11 13:06:19;;;;;;;3.40;1.60;;;;;;;;;;4931224;29;20105;-75
2022/06/11 13:08:52;;;;;;;5.00;1.60;;;;;;;;;;4930987;29;20087;-75
2022/06/11 13:11:36;;;;;;;5.78;1.88;;;;;;;;;;4914422;29;20052;-74
2022/06/11 13:14:06;;;;;;;6.15;1.42;;;;;;;;;;4931413;29;20143;-75
2022/06/11 13:16:33;;;;;;;7.60;1.30;;;;;;;;;;4930548;29;20157;-74
2022/06/11 13:19:07;;;;;;;2.83;1.30;;;;;;;;;;4936665;29;20062;-73
2022/06/11 13:21:46;;;;;;;10.32;1.40;;;;;;;;;;4949783;29;20078;-75
2022/06/11 13:24:22;;;;;;;6.20;1.70;;;;;;;;;;4950097;29;20623;-75
2022/06/11 13:26:55;;;;;;;5.72;1.98;;;;;;;;;;4950026;29;20133;-75
2022/06/11 13:29:41;;;;;;;3.47;1.85;;;;;;;;;;4948436;29;20083;-75
2022/06/11 13:32:27;;;;;;;1.98;1.52;;;;;;;;;;4925710;29;20556;-75
2022/06/11 13:35:03;;;;;;;12.65;1.88;;;;;;;;;;4930606;29;20455;-75
2022/06/11 13:37:51;;;;;;;4.20;1.27;;;;;;;;;;4930525;29;20134;-75
2022/06/11 13:40:33;;;;;;;3.92;1.15;;;;;;;;;;4930355;29;20390;-75
2022/06/11 13:43:01;;;;;;;4.10;1.15;;;;;;;;;;4949021;28;20146;-75
2022/06/11 13:45:28;;;;;;;2.85;1.35;;;;;;;;;;4949278;29;20106;-75
2022/06/11 13:48:00;;;;;;;3.80;1.38;;;;;;;;;;4948125;28;20142;-75
2022/06/11 13:50:32;;;;;;;8.30;1.40;;;;;;;;;;4930215;29;20147;-75
2022/06/11 13:55:59;;;;;;;4.18;1.42;;;;;;;;;;4933813;29;20052;-75
2022/06/11 13:58:46;;;;;;;4.60;2.13;;;;;;;;;;4911806;29;20088;-76
2022/06/11 14:01:28;;;;;;;1.75;1.20;;;;;;;;;;4911034;29;20573;-75
2022/06/11 14:04:14;;;;;;;4.35;1.10;;;;;;;;;;4912921;29;20516;-76
2022/06/11 14:06:42;;;;;;;5.30;1.02;;;;;;;;;;4931062;29;20142;-75
2022/06/11 14:12:02;;;;;;;4.13;2.50;;;;;;;;;;4910924;29;20150;-75
2022/06/11 14:14:29;;;;;;;18.23;3.28;;;;;;;;;;4941680;29;20109;-75
2022/06/11 14:16:57;;;;;;;5.78;2.70;;;;;;;;;;4949161;29;20047;-75
2022/06/11 14:19:25;;;;;;;10.57;3.47;;;;;;;;;;4949230;29;20086;-76
2022/06/11 14:21:53;;;;;;;7.40;3.00;;;;;;;;;;4942534;29;20063;-75
2022/06/11 14:24:39;;;;;;;12.13;3.33;;;;;;;;;;4929742;29;20157;-76
2022/06/11 14:27:26;;;;;;;9.73;2.65;;;;;;;;;;4929657;29;20127;-76
2022/06/11 14:30:05;;;;;;;15.55;3.10;;;;;;;;;;4929552;29;20134;-75
2022/06/11 14:32:32;;;;;;;11.80;2.83;;;;;;;;;;4929867;29;20131;-75
2022/06/11 14:35:02;;;;;;;12.15;3.47;;;;;;;;;;4912698;29;20083;-76
2022/06/11 14:37:31;;;;;;;5.15;3.10;;;;;;;;;;4912274;29;20058;-76
2022/06/11 14:40:18;;;;;;;11.35;3.83;;;;;;;;;;4929400;29;20233;-75
2022/06/11 14:42:57;;;;;;;4.68;2.70;;;;;;;;;;4929755;29;20091;-76
2022/06/11 14:45:53;;;;;;;11.07;3.00;;;;;;;;;;4948119;29;20134;-76
2022/06/11 14:48:50;;;;;;;9.65;2.60;;;;;;;;;;4932455;28;20129;-76
2022/06/11 14:51:18;;;;;;;5.35;2.30;;;;;;;;;;4932613;29;20153;-76
2022/06/11 14:53:48;;;;;;;7.43;2.65;;;;;;;;;;4948559;29;20075;-76
2022/06/11 14:56:15;;;;;;;5.82;2.20;;;;;;;;;;4937085;29;20043;-76
2022/06/11 14:58:45;;;;;;;11.50;2.45;;;;;;;;;;4928980;29;20110;-75
2022/06/11 15:01:19;;;;;;;3.72;1.85;;;;;;;;;;4928616;29;20094;-75
2022/06/11 15:03:46;;;;;;;8.25;2.03;;;;;;;;;;4929655;29;20052;-75
2022/06/11 15:06:33;;;;;;;5.88;1.95;;;;;;;;;;4912105;29;20516;-75
2022/06/11 15:09:00;;;;;;;6.10;1.90;;;;;;;;;;4929967;29;20138;-76
2022/06/11 15:11:32;;;;;;;5.88;1.80;;;;;;;;;;4911907;29;20048;-76
2022/06/11 15:14:06;;;;;;;6.88;2.10;;;;;;;;;;4912596;29;20051;-75